sensor_id;sensor_type;location;lat;lon;timestamp;pressure;altitude;pressure_sealevel;temperature;humidity
58295;BME280;45705;55.592;37.460;2022-10-23T00:00:03;99215.72;;;4.52;100.00
58295;BME280;45705;55.592;37.460;2022-10-23T00:02:30;99214.06;;;4.41;100.00
58295;BME280;45705;55.592;37.460;2022-10-23T00:04:56;99210.31;;;4.37;100.00
58295;BME280;45705;55.592;37.460;2022-10-23T00:07:21;99213.56;;;4.49;100.00
58295;BME280;45705;55.592;37.460;2022-10-23T00:09:47;99208.09;;;4.28;100.00
58295;BME280;45705;55.592;37.460;2022-10-23T00:12:13;99209.78;;;4.50;100.00
58295;BME280;45705;55.592;37.460;2022-10-23T00:14:38;99201.19;;;4.58;100.00
58295;BME280;45705;55.592;37.460;2022-10-23T00:17:04;99193.59;;;4.40;100.00
58295;BME280;45705;55.592;37.460;2022-10-23T00:19:30;99197.41;;;4.49;100.00
58295;BME280;45705;55.592;37.460;2022-10-23T00:21:55;99195.47;;;4.34;100.00
58295;BME280;45705;55.592;37.460;2022-10-23T00:24:21;99190.34;;;4.27;100.00
58295;BME280;45705;55.592;37.460;2022-10-23T00:26:48;99184.19;;;4.37;100.00
58295;BME280;45705;55.592;37.460;2022-10-23T00:29:15;99179.06;;;4.46;100.00
58295;BME280;45705;55.592;37.460;2022-10-23T00:31:41;99175.84;;;4.59;100.00
58295;BME280;45705;55.592;37.460;2022-10-23T00:34:06;99153.78;;;4.62;100.00
58295;BME280;45705;55.592;37.460;2022-10-23T00:36:34;99175.84;;;4.49;100.00
58295;BME280;45705;55.592;37.460;2022-10-23T00:39:00;99152.69;;;4.38;100.00
58295;BME280;45705;55.592;37.460;2022-10-23T00:41:28;99162.34;;;4.23;100.00
58295;BME280;45705;55.592;37.460;2022-10-23T00:44:09;99159.13;;;4.31;100.00
58295;BME280;45705;55.592;37.460;2022-10-23T00:46:36;99165.63;;;4.41;100.00
58295;BME280;45705;55.592;37.460;2022-10-23T00:49:03;99158.59;;;4.40;100.00
58295;BME280;45705;55.592;37.460;2022-10-23T00:51:40;99155.41;;;4.43;100.00
58295;BME280;45705;55.592;37.460;2022-10-23T00:54:07;99149.72;;;4.34;100.00
58295;BME280;45705;55.592;37.460;2022-10-23T00:56:37;99145.16;;;4.40;100.00
58295;BME280;45705;55.592;37.460;2022-10-23T00:59:03;99139.19;;;4.22;100.00
58295;BME280;45705;55.592;37.460;2022-10-23T01:01:29;99135.72;;;4.37;100.00
58295;BME280;45705;55.592;37.460;2022-10-23T01:03:55;99137.09;;;4.45;100.00
58295;BME280;45705;55.592;37.460;2022-10-23T01:09:37;99137.88;;;4.35;100.00
58295;BME280;45705;55.592;37.460;2022-10-23T01:15:07;99133.84;;;4.43;100.00
58295;BME280;45705;55.592;37.460;2022-10-23T01:18:00;99128.19;;;4.39;100.00
58295;BME280;45705;55.592;37.460;2022-10-23T01:20:32;99120.38;;;4.38;100.00
58295;BME280;45705;55.592;37.460;2022-10-23T01:23:16;99118.22;;;4.19;100.00
58295;BME280;45705;55.592;37.460;2022-10-23T01:28:35;99108.25;;;4.30;100.00
58295;BME280;45705;55.592;37.460;2022-10-23T01:31:09;99108.50;;;4.03;100.00
58295;BME280;45705;55.592;37.460;2022-10-23T01:33:42;99115.78;;;4.07;100.00
58295;BME280;45705;55.592;37.460;2022-10-23T01:36:11;99101.78;;;4.05;100.00
58295;BME280;45705;55.592;37.460;2022-10-23T01:38:59;99107.41;;;3.99;100.00
58295;BME280;45705;55.592;37.460;2022-10-23T01:41:33;99106.81;;;3.81;100.00
58295;BME280;45705;55.592;37.460;2022-10-23T01:44:18;99102.78;;;3.79;100.00
58295;BME280;45705;55.592;37.460;2022-10-23T01:46:49;99106.56;;;3.72;100.00
58295;BME280;45705;55.592;37.460;2022-10-23T01:49:17;99106.78;;;3.61;100.00
58295;BME280;45705;55.592;37.460;2022-10-23T01:51:54;99103.31;;;3.75;100.00
58295;BME280;45705;55.592;37.460;2022-10-23T01:54:25;99100.84;;;3.64;100.00
58295;BME280;45705;55.592;37.460;2022-10-23T01:56:53;99108.94;;;3.69;100.00
58295;BME280;45705;55.592;37.460;2022-10-23T01:59:32;99096.50;;;3.52;100.00
58295;BME280;45705;55.592;37.460;2022-10-23T02:01:59;99103.31;;;3.75;100.00
58295;BME280;45705;55.592;37.460;2022-10-23T02:04:32;99103.53;;;3.59;100.00
58295;BME280;45705;55.592;37.460;2022-10-23T02:06:58;99104.06;;;3.55;100.00
58295;BME280;45705;55.592;37.460;2022-10-23T02:09:24;99094.91;;;3.57;100.00
58295;BME280;45705;55.592;37.460;2022-10-23T02:12:06;99066.94;;;3.52;100.00
58295;BME280;45705;55.592;37.460;2022-10-23T02:14:53;99091.16;;;3.58;100.00
58295;BME280;45705;55.592;37.460;2022-10-23T02:17:28;99097.63;;;3.62;100.00
58295;BME280;45705;55.592;37.460;2022-10-23T02:20:02;99088.44;;;3.52;100.00
58295;BME280;45705;55.592;37.460;2022-10-23T02:22:37;99086.78;;;3.41;100.00
58295;BME280;45705;55.592;37.460;2022-10-23T02:25:12;99089.75;;;3.40;100.00
58295;BME280;45705;55.592;37.460;2022-10-23T02:27:45;99086.25;;;3.34;100.00
58295;BME280;45705;55.592;37.460;2022-10-23T02:30:17;99089.00;;;3.49;100.00
58295;BME280;45705;55.592;37.460;2022-10-23T02:32:51;99084.66;;;3.43;100.00
58295;BME280;45705;55.592;37.460;2022-10-23T02:35:20;99061.94;;;3.13;100.00
58295;BME280;45705;55.592;37.460;2022-10-23T02:37:58;99083.56;;;3.34;100.00
58295;BME280;45705;55.592;37.460;2022-10-23T02:40:39;99077.56;;;3.22;100.00
58295;BME280;45705;55.592;37.460;2022-10-23T02:43:14;99077.88;;;3.30;100.00
58295;BME280;45705;55.592;37.460;2022-10-23T02:46:06;99078.09;;;3.19;100.00
58295;BME280;45705;55.592;37.460;2022-10-23T02:48:46;99075.38;;;3.08;100.00
58295;BME280;45705;55.592;37.460;2022-10-23T02:51:21;99072.94;;;3.07;100.00
58295;BME280;45705;55.592;37.460;2022-10-23T03:00:08;99074.81;;;3.06;100.00
58295;BME280;45705;55.592;37.460;2022-10-23T03:02:40;99080.78;;;3.19;100.00
58295;BME280;45705;55.592;37.460;2022-10-23T03:05:16;99075.88;;;3.05;100.00
58295;BME280;45705;55.592;37.460;2022-10-23T03:07:43;99066.50;;;3.08;100.00
58295;BME280;45705;55.592;37.460;2022-10-23T03:10:09;99065.97;;;3.11;100.00
58295;BME280;45705;55.592;37.460;2022-10-23T03:12:36;99034.09;;;2.72;100.00
58295;BME280;45705;55.592;37.460;2022-10-23T03:15:04;99047.09;;;2.95;100.00
58295;BME280;45705;55.592;37.460;2022-10-23T03:17:30;99054.03;;;2.86;100.00
58295;BME280;45705;55.592;37.460;2022-10-23T03:19:58;99059.69;;;2.90;100.00
58295;BME280;45705;55.592;37.460;2022-10-23T03:22:24;99051.53;;;2.74;100.00
58295;BME280;45705;55.592;37.460;2022-10-23T03:24:50;99047.84;;;2.86;100.00
58295;BME280;45705;55.592;37.460;2022-10-23T03:27:16;99047.50;;;2.72;100.00
58295;BME280;45705;55.592;37.460;2022-10-23T03:29:41;99041.38;;;2.82;100.00
58295;BME280;45705;55.592;37.460;2022-10-23T03:32:07;99036.78;;;2.77;100.00
58295;BME280;45705;55.592;37.460;2022-10-23T03:34:34;99041.84;;;2.68;100.00
58295;BME280;45705;55.592;37.460;2022-10-23T03:37:02;99044.53;;;2.68;100.00
58295;BME280;45705;55.592;37.460;2022-10-23T03:39:29;99046.66;;;2.66;100.00
58295;BME280;45705;55.592;37.460;2022-10-23T03:41:55;99045.56;;;2.67;100.00
58295;BME280;45705;55.592;37.460;2022-10-23T03:44:21;99034.19;;;2.50;100.00
58295;BME280;45705;55.592;37.460;2022-10-23T03:46:47;99038.06;;;2.64;100.00
58295;BME280;45705;55.592;37.460;2022-10-23T03:49:13;99033.00;;;2.73;100.00
58295;BME280;45705;55.592;37.460;2022-10-23T03:51:42;99019.56;;;2.68;100.00
58295;BME280;45705;55.592;37.460;2022-10-23T03:54:09;99031.66;;;2.70;100.00
58295;BME280;45705;55.592;37.460;2022-10-23T03:56:36;99024.69;;;2.74;100.00
58295;BME280;45705;55.592;37.460;2022-10-23T03:59:02;99031.31;;;2.62;100.00
58295;BME280;45705;55.592;37.460;2022-10-23T04:01:28;99023.59;;;2.70;100.00
58295;BME280;45705;55.592;37.460;2022-10-23T04:03:54;99016.59;;;2.64;100.00
58295;BME280;45705;55.592;37.460;2022-10-23T04:06:22;99019.31;;;2.74;100.00
58295;BME280;45705;55.592;37.460;2022-10-23T04:08:51;99011.72;;;2.61;100.00
58295;BME280;45705;55.592;37.460;2022-10-23T04:11:17;99017.63;;;2.58;100.00
58295;BME280;45705;55.592;37.460;2022-10-23T04:13:45;99015.53;;;2.70;100.00
58295;BME280;45705;55.592;37.460;2022-10-23T04:16:11;99018.13;;;2.55;100.00
58295;BME280;45705;55.592;37.460;2022-10-23T04:18:39;99015.78;;;2.69;100.00
58295;BME280;45705;55.592;37.460;2022-10-23T04:21:08;99006.34;;;2.56;100.00
58295;BME280;45705;55.592;37.460;2022-10-23T04:23:34;99005.06;;;2.69;100.00
58295;BME280;45705;55.592;37.460;2022-10-23T04:26:00;99008.59;;;2.74;100.00
58295;BME280;45705;55.592;37.460;2022-10-23T04:28:26;98998.88;;;2.68;100.00
58295;BME280;45705;55.592;37.460;2022-10-23T04:30:52;98980.09;;;2.68;100.00
58295;BME280;45705;55.592;37.460;2022-10-23T04:33:18;98997.00;;;2.64;100.00
58295;BME280;45705;55.592;37.460;2022-10-23T04:35:47;98997.75;;;2.54;100.00
58295;BME280;45705;55.592;37.460;2022-10-23T04:38:15;98998.84;;;2.58;100.00
58295;BME280;45705;55.592;37.460;2022-10-23T04:40:42;98998.28;;;2.56;100.00
58295;BME280;45705;55.592;37.460;2022-10-23T04:43:08;99007.09;;;2.51;100.00
58295;BME280;45705;55.592;37.460;2022-10-23T04:45:37;98996.13;;;2.53;100.00
58295;BME280;45705;55.592;37.460;2022-10-23T04:48:03;98998.25;;;2.51;100.00
58295;BME280;45705;55.592;37.460;2022-10-23T04:50:40;99001.53;;;2.63;100.00
58295;BME280;45705;55.592;37.460;2022-10-23T04:53:25;98993.53;;;2.68;100.00
58295;BME280;45705;55.592;37.460;2022-10-23T04:56:16;98990.28;;;2.66;100.00
58295;BME280;45705;55.592;37.460;2022-10-23T04:58:55;98996.25;;;2.73;100.00
58295;BME280;45705;55.592;37.460;2022-10-23T05:01:22;98991.97;;;2.83;100.00
58295;BME280;45705;55.592;37.460;2022-10-23T05:03:48;98997.97;;;3.00;100.00
58295;BME280;45705;55.592;37.460;2022-10-23T05:06:14;98995.75;;;2.87;100.00
58295;BME280;45705;55.592;37.460;2022-10-23T05:08:42;98994.16;;;2.86;100.00
58295;BME280;45705;55.592;37.460;2022-10-23T05:11:14;98999.47;;;2.81;100.00
58295;BME280;45705;55.592;37.460;2022-10-23T05:13:46;98990.44;;;2.97;100.00
58295;BME280;45705;55.592;37.460;2022-10-23T05:16:31;98987.41;;;2.78;100.00
58295;BME280;45705;55.592;37.460;2022-10-23T05:19:02;98990.72;;;3.01;100.00
58295;BME280;45705;55.592;37.460;2022-10-23T05:21:31;98990.91;;;2.89;100.00
58295;BME280;45705;55.592;37.460;2022-10-23T05:23:59;98987.50;;;2.99;100.00
58295;BME280;45705;55.592;37.460;2022-10-23T05:26:27;98989.91;;;2.95;100.00
58295;BME280;45705;55.592;37.460;2022-10-23T05:28:53;98984.31;;;3.07;100.00
58295;BME280;45705;55.592;37.460;2022-10-23T05:31:19;98980.78;;;3.01;100.00
58295;BME280;45705;55.592;37.460;2022-10-23T05:33:51;98975.41;;;3.01;100.00
58295;BME280;45705;55.592;37.460;2022-10-23T05:36:20;98982.94;;;3.04;100.00
58295;BME280;45705;55.592;37.460;2022-10-23T05:38:52;98977.88;;;3.13;100.00
58295;BME280;45705;55.592;37.460;2022-10-23T05:41:19;98973.91;;;3.26;100.00
58295;BME280;45705;55.592;37.460;2022-10-23T05:43:46;98969.59;;;3.25;100.00
58295;BME280;45705;55.592;37.460;2022-10-23T05:46:30;98963.16;;;3.41;100.00
58295;BME280;45705;55.592;37.460;2022-10-23T05:49:15;98955.41;;;3.50;100.00
58295;BME280;45705;55.592;37.460;2022-10-23T05:51:59;98960.53;;;3.72;100.00
58295;BME280;45705;55.592;37.460;2022-10-23T05:54:43;98965.91;;;3.77;100.00
58295;BME280;45705;55.592;37.460;2022-10-23T05:57:21;98961.59;;;4.07;100.00
58295;BME280;45705;55.592;37.460;2022-10-23T05:59:49;98963.25;;;3.82;100.00
58295;BME280;45705;55.592;37.460;2022-10-23T06:02:24;98964.84;;;4.04;100.00
58295;BME280;45705;55.592;37.460;2022-10-23T06:05:03;98953.53;;;3.81;100.00
58295;BME280;45705;55.592;37.460;2022-10-23T06:07:29;98961.63;;;3.86;100.00
58295;BME280;45705;55.592;37.460;2022-10-23T06:09:55;98957.31;;;3.75;100.00
58295;BME280;45705;55.592;37.460;2022-10-23T06:12:21;98941.97;;;3.65;100.00
58295;BME280;45705;55.592;37.460;2022-10-23T06:14:49;98951.41;;;3.78;100.00
58295;BME280;45705;55.592;37.460;2022-10-23T06:17:15;98949.50;;;3.73;100.00
58295;BME280;45705;55.592;37.460;2022-10-23T06:19:43;98943.84;;;3.85;100.00
58295;BME280;45705;55.592;37.460;2022-10-23T06:22:12;98932.03;;;3.86;100.00
58295;BME280;45705;55.592;37.460;2022-10-23T06:24:52;98943.31;;;4.04;100.00
58295;BME280;45705;55.592;37.460;2022-10-23T06:27:23;98939.50;;;4.36;100.00
58295;BME280;45705;55.592;37.460;2022-10-23T06:29:49;98933.06;;;4.31;100.00
58295;BME280;45705;55.592;37.460;2022-10-23T06:32:15;98938.47;;;4.11;100.00
58295;BME280;45705;55.592;37.460;2022-10-23T06:34:48;98926.09;;;4.10;100.00
58295;BME280;45705;55.592;37.460;2022-10-23T06:37:13;98930.16;;;4.07;100.00
58295;BME280;45705;55.592;37.460;2022-10-23T06:39:54;98928.78;;;4.15;100.00
58295;BME280;45705;55.592;37.460;2022-10-23T06:42:32;98925.06;;;3.96;100.00
58295;BME280;45705;55.592;37.460;2022-10-23T06:44:58;98921.25;;;4.07;100.00
58295;BME280;45705;55.592;37.460;2022-10-23T06:47:49;98918.47;;;4.53;100.00
58295;BME280;45705;55.592;37.460;2022-10-23T06:50:27;98913.03;;;4.68;100.00
58295;BME280;45705;55.592;37.460;2022-10-23T06:52:58;98909.41;;;4.23;100.00
58295;BME280;45705;55.592;37.460;2022-10-23T06:55:23;98911.53;;;4.37;100.00
58295;BME280;45705;55.592;37.460;2022-10-23T06:57:50;98907.78;;;4.32;100.00
58295;BME280;45705;55.592;37.460;2022-10-23T07:00:16;98902.38;;;4.22;100.00
58295;BME280;45705;55.592;37.460;2022-10-23T07:02:48;98895.16;;;4.18;100.00
58295;BME280;45705;55.592;37.460;2022-10-23T07:05:14;98890.00;;;4.37;100.00
58295;BME280;45705;55.592;37.460;2022-10-23T07:07:41;98892.41;;;4.28;100.00
58295;BME280;45705;55.592;37.460;2022-10-23T07:10:08;98891.09;;;4.25;100.00
58295;BME280;45705;55.592;37.460;2022-10-23T07:12:40;98880.50;;;4.49;100.00
58295;BME280;45705;55.592;37.460;2022-10-23T07:15:31;98881.34;;;4.40;100.00
58295;BME280;45705;55.592;37.460;2022-10-23T07:17:58;98879.72;;;4.49;100.00
58295;BME280;45705;55.592;37.460;2022-10-23T07:20:29;98865.78;;;4.37;100.00
58295;BME280;45705;55.592;37.460;2022-10-23T07:22:55;98876.19;;;4.53;100.00
58295;BME280;45705;55.592;37.460;2022-10-23T07:25:33;98868.94;;;4.49;100.00
58295;BME280;45705;55.592;37.460;2022-10-23T07:27:59;98868.09;;;4.59;100.00
58295;BME280;45705;55.592;37.460;2022-10-23T07:30:28;98867.09;;;4.39;100.00
58295;BME280;45705;55.592;37.460;2022-10-23T07:32:55;98867.84;;;4.55;100.00
58295;BME280;45705;55.592;37.460;2022-10-23T07:35:52;98860.34;;;4.47;100.00
58295;BME280;45705;55.592;37.460;2022-10-23T07:38:24;98867.34;;;4.48;100.00
58295;BME280;45705;55.592;37.460;2022-10-23T07:40:52;98848.25;;;4.39;100.00
58295;BME280;45705;55.592;37.460;2022-10-23T07:43:22;98846.66;;;4.28;100.00
58295;BME280;45705;55.592;37.460;2022-10-23T07:45:48;98863.56;;;4.49;100.00
58295;BME280;45705;55.592;37.460;2022-10-23T07:48:23;98856.53;;;4.58;100.00
58295;BME280;45705;55.592;37.460;2022-10-23T07:51:00;98858.19;;;4.49;100.00
58295;BME280;45705;55.592;37.460;2022-10-23T07:53:26;98859.09;;;4.84;100.00
58295;BME280;45705;55.592;37.460;2022-10-23T07:55:59;98859.75;;;4.60;100.00
58295;BME280;45705;55.592;37.460;2022-10-23T07:58:36;98866.66;;;4.82;100.00
58295;BME280;45705;55.592;37.460;2022-10-23T08:01:14;98863.50;;;4.69;100.00
58295;BME280;45705;55.592;37.460;2022-10-23T08:03:41;98864.34;;;4.60;100.00
58295;BME280;45705;55.592;37.460;2022-10-23T08:06:07;98873.16;;;4.76;100.00
58295;BME280;45705;55.592;37.460;2022-10-23T08:08:33;98861.16;;;5.02;100.00
58295;BME280;45705;55.592;37.460;2022-10-23T08:11:02;98859.59;;;4.91;100.00
58295;BME280;45705;55.592;37.460;2022-10-23T08:13:33;98865.53;;;4.93;100.00
58295;BME280;45705;55.592;37.460;2022-10-23T08:16:03;98857.03;;;5.55;100.00
58295;BME280;45705;55.592;37.460;2022-10-23T08:18:48;98859.56;;;4.96;100.00
58295;BME280;45705;55.592;37.460;2022-10-23T08:21:16;98859.59;;;4.91;100.00
58295;BME280;45705;55.592;37.460;2022-10-23T08:23:43;98860.66;;;4.95;100.00
58295;BME280;45705;55.592;37.460;2022-10-23T08:26:09;98853.25;;;4.71;100.00
58295;BME280;45705;55.592;37.460;2022-10-23T08:28:36;98852.66;;;4.80;100.00
58295;BME280;45705;55.592;37.460;2022-10-23T08:31:21;98851.84;;;4.79;100.00
58295;BME280;45705;55.592;37.460;2022-10-23T08:34:05;98855.88;;;4.82;100.00
58295;BME280;45705;55.592;37.460;2022-10-23T08:36:32;98855.38;;;4.74;100.00
58295;BME280;45705;55.592;37.460;2022-10-23T08:38:58;98858.03;;;4.80;100.00
58295;BME280;45705;55.592;37.460;2022-10-23T08:41:33;98860.81;;;4.64;100.00
58295;BME280;45705;55.592;37.460;2022-10-23T08:47:01;98844.16;;;5.02;100.00
58295;BME280;45705;55.592;37.460;2022-10-23T08:49:50;98831.25;;;5.38;100.00
58295;BME280;45705;55.592;37.460;2022-10-23T08:55:08;98828.09;;;4.86;100.00
58295;BME280;45705;55.592;37.460;2022-10-23T08:57:44;98826.97;;;4.98;100.00
58295;BME280;45705;55.592;37.460;2022-10-23T09:00:14;98821.28;;;5.04;100.00
58295;BME280;45705;55.592;37.460;2022-10-23T09:02:51;98817.47;;;5.05;100.00
58295;BME280;45705;55.592;37.460;2022-10-23T09:05:27;98820.81;;;5.31;100.00
58295;BME280;45705;55.592;37.460;2022-10-23T09:17:04;98813.09;;;5.20;100.00
58295;BME280;45705;55.592;37.460;2022-10-23T09:19:10;98813.50;;;5.37;100.00
58295;BME280;45705;55.592;37.460;2022-10-23T09:21:36;98807.81;;;5.68;100.00
58295;BME280;45705;55.592;37.460;2022-10-23T09:24:02;98803.03;;;5.60;100.00
58295;BME280;45705;55.592;37.460;2022-10-23T09:26:28;98801.44;;;5.59;100.00
58295;BME280;45705;55.592;37.460;2022-10-23T09:29:01;98795.59;;;5.46;100.00
58295;BME280;45705;55.592;37.460;2022-10-23T09:31:30;98796.84;;;5.25;100.00
58295;BME280;45705;55.592;37.460;2022-10-23T09:34:00;98797.13;;;5.58;100.00
58295;BME280;45705;55.592;37.460;2022-10-23T09:36:26;98798.75;;;5.24;100.00
58295;BME280;45705;55.592;37.460;2022-10-23T09:38:56;98793.28;;;5.00;100.00
58295;BME280;45705;55.592;37.460;2022-10-23T09:41:36;98796.53;;;4.92;100.00
58295;BME280;45705;55.592;37.460;2022-10-23T09:46:43;98788.22;;;5.28;100.00
58295;BME280;45705;55.592;37.460;2022-10-23T09:49:24;98781.09;;;5.08;100.00
58295;BME280;45705;55.592;37.460;2022-10-23T09:52:03;98784.00;;;5.11;100.00
58295;BME280;45705;55.592;37.460;2022-10-23T09:54:31;98779.34;;;4.88;100.00
58295;BME280;45705;55.592;37.460;2022-10-23T10:00:18;98762.91;;;5.24;100.00
58295;BME280;45705;55.592;37.460;2022-10-23T10:03:04;98782.31;;;5.26;100.00
58295;BME280;45705;55.592;37.460;2022-10-23T10:05:43;98776.91;;;5.26;100.00
58295;BME280;45705;55.592;37.460;2022-10-23T10:11:24;98765.34;;;5.55;100.00
58295;BME280;45705;55.592;37.460;2022-10-23T10:19:35;98768.75;;;5.31;100.00
58295;BME280;45705;55.592;37.460;2022-10-23T10:30:23;98753.16;;;5.28;100.00
58295;BME280;45705;55.592;37.460;2022-10-23T10:33:09;98751.84;;;5.25;100.00
58295;BME280;45705;55.592;37.460;2022-10-23T10:41:21;98736.94;;;5.33;100.00
58295;BME280;45705;55.592;37.460;2022-10-23T10:46:41;98737.84;;;5.23;100.00
58295;BME280;45705;55.592;37.460;2022-10-23T10:52:21;98731.00;;;5.36;100.00
58295;BME280;45705;55.592;37.460;2022-10-23T10:57:55;98724.06;;;5.54;100.00
58295;BME280;45705;55.592;37.460;2022-10-23T11:00:21;98715.22;;;5.19;100.00
58295;BME280;45705;55.592;37.460;2022-10-23T11:02:49;98706.97;;;5.64;100.00
58295;BME280;45705;55.592;37.460;2022-10-23T11:05:37;98706.09;;;5.44;100.00
58295;BME280;45705;55.592;37.460;2022-10-23T11:08:12;98703.56;;;5.29;100.00
58295;BME280;45705;55.592;37.460;2022-10-23T11:10:43;98698.88;;;5.40;100.00
58295;BME280;45705;55.592;37.460;2022-10-23T11:13:26;98696.72;;;5.12;100.00
58295;BME280;45705;55.592;37.460;2022-10-23T11:15:56;98681.53;;;5.22;100.00
58295;BME280;45705;55.592;37.460;2022-10-23T11:18:27;98678.41;;;5.09;100.00
58295;BME280;45705;55.592;37.460;2022-10-23T11:21:25;98677.31;;;5.10;100.00
58295;BME280;45705;55.592;37.460;2022-10-23T11:32:34;98671.78;;;5.26;100.00
58295;BME280;45705;55.592;37.460;2022-10-23T11:40:58;98666.34;;;5.31;100.00
58295;BME280;45705;55.592;37.460;2022-10-23T11:43:33;98666.47;;;5.45;100.00
58295;BME280;45705;55.592;37.460;2022-10-23T11:48:54;98664.34;;;5.18;100.00
58295;BME280;45705;55.592;37.460;2022-10-23T11:51:39;98659.59;;;5.04;100.00
58295;BME280;45705;55.592;37.460;2022-10-23T11:54:07;98665.81;;;5.29;100.00
58295;BME280;45705;55.592;37.460;2022-10-23T11:57:10;98654.59;;;5.22;100.00
58295;BME280;45705;55.592;37.460;2022-10-23T12:02:34;98646.44;;;5.27;100.00
58295;BME280;45705;55.592;37.460;2022-10-23T12:05:07;98640.22;;;5.02;100.00
58295;BME280;45705;55.592;37.460;2022-10-23T12:07:39;98639.16;;;4.98;100.00
58295;BME280;45705;55.592;37.460;2022-10-23T12:10:43;98642.47;;;5.19;100.00
58295;BME280;45705;55.592;37.460;2022-10-23T12:15:53;98635.13;;;5.25;100.00
58295;BME280;45705;55.592;37.460;2022-10-23T12:18:20;98640.44;;;5.35;100.00
58295;BME280;45705;55.592;37.460;2022-10-23T12:21:14;98634.28;;;5.29;100.00
58295;BME280;45705;55.592;37.460;2022-10-23T12:24:08;98628.16;;;5.24;100.00
58295;BME280;45705;55.592;37.460;2022-10-23T12:29:55;98630.50;;;5.55;100.00
58295;BME280;45705;55.592;37.460;2022-10-23T12:32:32;98628.50;;;5.41;100.00
58295;BME280;45705;55.592;37.460;2022-10-23T12:40:21;98621.13;;;5.23;100.00
58295;BME280;45705;55.592;37.460;2022-10-23T12:42:54;98618.69;;;5.26;100.00
58295;BME280;45705;55.592;37.460;2022-10-23T12:45:25;98620.06;;;5.24;100.00
58295;BME280;45705;55.592;37.460;2022-10-23T12:47:52;98621.25;;;5.37;100.00
58295;BME280;45705;55.592;37.460;2022-10-23T12:50:24;98610.78;;;5.35;100.00
58295;BME280;45705;55.592;37.460;2022-10-23T12:52:58;98616.00;;;5.69;100.00
58295;BME280;45705;55.592;37.460;2022-10-23T12:56:00;98610.19;;;5.62;100.00
58295;BME280;45705;55.592;37.460;2022-10-23T12:58:28;98603.09;;;5.47;100.00
58295;BME280;45705;55.592;37.460;2022-10-23T13:01:00;98610.63;;;5.69;100.00
58295;BME280;45705;55.592;37.460;2022-10-23T13:03:27;98606.84;;;5.46;100.00
58295;BME280;45705;55.592;37.460;2022-10-23T13:05:56;98605.41;;;5.35;100.00
58295;BME280;45705;55.592;37.460;2022-10-23T13:08:26;98602.75;;;5.30;100.00
58295;BME280;45705;55.592;37.460;2022-10-23T13:11:20;98603.03;;;5.28;100.00
58295;BME280;45705;55.592;37.460;2022-10-23T13:13:48;98602.63;;;5.40;100.00
58295;BME280;45705;55.592;37.460;2022-10-23T13:16:16;98598.50;;;5.24;100.00
58295;BME280;45705;55.592;37.460;2022-10-23T13:18:42;98591.28;;;5.43;100.00
58295;BME280;45705;55.592;37.460;2022-10-23T13:21:20;98592.88;;;5.44;100.00
58295;BME280;45705;55.592;37.460;2022-10-23T13:23:46;98586.31;;;5.50;100.00
58295;BME280;45705;55.592;37.460;2022-10-23T13:26:38;98589.47;;;5.58;100.00
58295;BME280;45705;55.592;37.460;2022-10-23T13:29:35;98586.78;;;5.58;100.00
58295;BME280;45705;55.592;37.460;2022-10-23T13:32:11;98580.34;;;5.53;100.00
58295;BME280;45705;55.592;37.460;2022-10-23T13:34:37;98576.13;;;5.47;100.00
58295;BME280;45705;55.592;37.460;2022-10-23T13:37:27;98587.38;;;5.55;100.00
58295;BME280;45705;55.592;37.460;2022-10-23T13:40:05;98579.31;;;5.49;100.00
58295;BME280;45705;55.592;37.460;2022-10-23T13:42:34;98576.50;;;5.60;100.00
58295;BME280;45705;55.592;37.460;2022-10-23T13:45:00;98580.63;;;5.76;100.00
58295;BME280;45705;55.592;37.460;2022-10-23T13:47:26;98581.03;;;5.83;100.00
58295;BME280;45705;55.592;37.460;2022-10-23T13:49:52;98576.44;;;5.65;100.00
58295;BME280;45705;55.592;37.460;2022-10-23T13:52:20;98585.81;;;5.48;100.00
58295;BME280;45705;55.592;37.460;2022-10-23T13:54:48;98579.78;;;5.57;100.00
58295;BME280;45705;55.592;37.460;2022-10-23T13:57:15;98575.72;;;5.78;100.00
58295;BME280;45705;55.592;37.460;2022-10-23T13:59:41;98580.69;;;5.90;100.00
58295;BME280;45705;55.592;37.460;2022-10-23T14:02:23;98571.69;;;5.57;100.00
58295;BME280;45705;55.592;37.460;2022-10-23T14:04:49;98568.63;;;5.63;100.00
58295;BME280;45705;55.592;37.460;2022-10-23T14:07:15;98572.63;;;5.66;100.00
58295;BME280;45705;55.592;37.460;2022-10-23T14:09:41;98561.38;;;6.02;100.00
58295;BME280;45705;55.592;37.460;2022-10-23T14:12:06;98559.97;;;5.85;100.00
58295;BME280;45705;55.592;37.460;2022-10-23T14:14:32;98561.00;;;5.89;100.00
58295;BME280;45705;55.592;37.460;2022-10-23T14:16:59;98564.38;;;6.19;100.00
58295;BME280;45705;55.592;37.460;2022-10-23T14:19:24;98561.31;;;6.07;100.00
58295;BME280;45705;55.592;37.460;2022-10-23T14:21:50;98561.13;;;5.79;100.00
58295;BME280;45705;55.592;37.460;2022-10-23T14:24:15;98560.03;;;5.61;100.00
58295;BME280;45705;55.592;37.460;2022-10-23T14:26:41;98557.94;;;5.77;100.00
58295;BME280;45705;55.592;37.460;2022-10-23T14:29:07;98561.31;;;6.07;100.00
58295;BME280;45705;55.592;37.460;2022-10-23T14:31:33;98546.41;;;6.28;100.00
58295;BME280;45705;55.592;37.460;2022-10-23T14:33:59;98545.63;;;6.09;100.00
58295;BME280;45705;55.592;37.460;2022-10-23T14:36:27;98542.84;;;5.95;100.00
58295;BME280;45705;55.592;37.460;2022-10-23T14:38:55;98545.97;;;5.83;100.00
58295;BME280;45705;55.592;37.460;2022-10-23T14:41:21;98550.34;;;5.79;100.00
58295;BME280;45705;55.592;37.460;2022-10-23T14:43:47;98543.59;;;6.01;100.00
58295;BME280;45705;55.592;37.460;2022-10-23T14:46:15;98546.50;;;5.66;100.00
58295;BME280;45705;55.592;37.460;2022-10-23T14:48:42;98547.22;;;5.72;100.00
58295;BME280;45705;55.592;37.460;2022-10-23T14:51:20;98528.00;;;5.36;100.00